Owings, MD (20736)

9:10 PM EDT on July 23, 2016 (GMT -0400)
Victoria Station | | Change Station

Elev 157 ft 38.69 °N, 76.62 °W | Updated 6 minutes ago

Clear
Clear
83.4 °F
Feels Like 92 °F
N
0.0
Wind Variable Wind from ENE
Gusts 0.0 mph

Today
High -- | Low -- °F
--% Chance of Precip.
Yesterday
High -- | Low -- °F
Precip. -- in
Pressure 29.88 in
Visibility 10.0 miles
Clouds Clear
Heat Index 92 °F
Dew Point 76 °F
Humidity 78%
Rainfall 0.00 in
Snow Depth Not available.
6:00 AM 8:24 PM
Waning Gibbous, 81% visible
METAR KADW 240058Z AUTO 23006KT 10SM CLR 31/22 A2988 RMK AO2 LTG DSNT NE-E SLPNO T03080221
Pressure 29.88 in
Visibility 10.0 miles
Clouds Clear
Heat Index 92 °F
Dew Point 76 °F
Humidity 78%
Rainfall 0.00 in
Snow Depth Not available.
6:00 AM 8:24 PM
Waning Gibbous, 81% visible
METAR KADW 240058Z AUTO 23006KT 10SM CLR 31/22 A2988 RMK AO2 LTG DSNT NE-E SLPNO T03080221

10-Day Weather Forecast

Almanac

Astronomy

Jul. 23, 2016 Rise Set
Actual Time
Civil Twilight
Nautical Twilight
Astronomical Twilight
Moon
Length of Visible Light
Length of Day
Tomorrow will be .
, % of the Moon is Illuminated

Today's Extremes

State Highs State Lows

Community

WunderPhotos

Upload Photos

1,926,992 photos uploaded!

WunderBlog® & News

Nearby

Air Quality

  Air Quality AQ Index Pollutant
Not available.

Snow Depth

Station Depth Elevation

Earthquake Activity

City Distance Mag. Time & Date
Minimum magnitude displayed is 2.5.

Coastal Water Temperatures

Place Temperature

Stations

Nearby Weather Stations

Station Location Temp. Windchill Dew Point Humidity Wind Precip. Elev Updated Type
                   

Watches & Warnings

There are currently no watches in effect.